Time;durP1;ratioP1;P1;durP2;ratioP2;P2;SDS_P1;SDS_P2;PMS_P1;PMS_P2;Temp;Humidity;BMP_temperature;BMP_pressure;BME280_temperature;BME280_humidity;BME280_pressure;Samples;Min_cycle;Max_cycle;Signal;HPM_P1;HPM_P2
2023/04/12 00:02:00;;;;;;;8.40;3.53;;;9.50;1.00;;;;;;7372555;19;20010;-69
2023/04/12 00:04:33;;;;;;;8.10;4.13;;;9.50;1.00;;;;;;7369388;19;20010;-68
2023/04/12 00:07:04;;;;;;;9.70;3.78;;;9.60;1.00;;;;;;7394696;19;20105;-68
2023/04/12 00:09:38;;;;;;;7.82;3.10;;;9.50;1.00;;;;;;7371005;19;20011;-69
2023/04/12 00:12:08;;;;;;;3.40;2.75;;;9.40;1.00;;;;;;7371946;19;20010;-69
2023/04/12 00:14:38;;;;;;;9.75;3.63;;;9.50;1.00;;;;;;7369798;19;20077;-69
2023/04/12 00:17:08;;;;;;;8.25;3.47;;;9.50;1.00;;;;;;7371197;19;20085;-69
2023/04/12 00:19:40;;;;;;;7.22;3.40;;;9.50;1.00;;;;;;7370850;19;20010;-68
2023/04/12 00:22:10;;;;;;;8.07;3.40;;;9.40;1.00;;;;;;7373007;19;20028;-68
2023/04/12 00:24:43;;;;;;;11.23;4.03;;;9.40;1.00;;;;;;7390188;19;20018;-69
2023/04/12 00:27:12;;;;;;;8.57;3.13;;;9.30;1.00;;;;;;7371658;19;20006;-69
2023/04/12 00:29:42;;;;;;;6.03;2.72;;;9.30;1.00;;;;;;7377715;19;20078;-69
2023/04/12 00:32:12;;;;;;;8.93;2.63;;;9.40;1.00;;;;;;7388628;19;20007;-69
2023/04/12 00:34:42;;;;;;;6.22;2.70;;;9.40;1.00;;;;;;7379282;19;20366;-69
2023/04/12 00:37:12;;;;;;;8.05;2.55;;;9.40;1.00;;;;;;7377828;19;20018;-68
2023/04/12 00:39:44;;;;;;;8.90;2.13;;;9.40;1.00;;;;;;7390512;19;20025;-69
2023/04/12 00:42:14;;;;;;;7.40;2.35;;;9.40;1.00;;;;;;7370527;19;20501;-67
2023/04/12 00:44:44;;;;;;;7.03;2.35;;;9.40;1.00;;;;;;7370394;19;20446;-69
2023/04/12 00:47:15;;;;;;;4.75;1.88;;;9.30;1.00;;;;;;7371294;19;20035;-69
2023/04/12 00:49:44;;;;;;;5.82;2.15;;;9.30;1.00;;;;;;7368992;19;20474;-69
2023/04/12 00:52:16;;;;;;;5.25;1.70;;;9.20;1.00;;;;;;7373482;19;20322;-69
2023/04/12 00:54:50;;;;;;;4.82;2.10;;;9.10;1.00;;;;;;7388612;19;20029;-70
2023/04/12 00:57:21;;;;;;;5.97;2.13;;;9.10;1.00;;;;;;7368027;19;20023;-70
2023/04/12 00:59:51;;;;;;;6.68;2.00;;;9.00;1.00;;;;;;7363495;19;20030;-69
2023/04/12 01:02:21;;;;;;;3.85;1.95;;;8.90;1.00;;;;;;7363269;19;20038;-70
2023/04/12 01:04:52;;;;;;;7.07;2.00;;;8.70;1.00;;;;;;7364117;19;20031;-70
2023/04/12 01:07:33;;;;;;;4.55;1.85;;;8.80;1.00;;;;;;7364361;19;20090;-70
2023/04/12 01:10:11;;;;;;;8.02;2.50;;;8.80;1.00;;;;;;7385483;19;20512;-69
2023/04/12 01:12:48;;;;;;;6.35;2.03;;;8.70;1.00;;;;;;7367522;19;20669;-70
2023/04/12 01:15:18;;;;;;;8.25;2.72;;;8.60;1.00;;;;;;7366932;19;20010;-69
2023/04/12 01:17:56;;;;;;;5.32;2.20;;;8.60;1.00;;;;;;7368526;19;20439;-69
2023/04/12 01:20:31;;;;;;;7.25;2.30;;;8.50;1.00;;;;;;7367049;19;20039;-70
2023/04/12 01:23:16;;;;;;;5.82;2.63;;;8.50;3.00;;;;;;7370095;19;20007;-69
2023/04/12 01:26:11;;;;;;;6.70;2.47;;;8.30;7.10;;;;;;7365572;19;20026;-69
2023/04/12 01:28:44;;;;;;;;;;;8.30;7.40;;;;;;7367732;19;20035;-69
2023/04/12 01:31:15;;;;;;;5.72;2.35;;;8.30;9.10;;;;;;7368086;19;19959;-67
2023/04/12 01:33:47;;;;;;;5.45;2.85;;;8.30;10.20;;;;;;7388046;19;20657;-68
2023/04/12 01:36:21;;;;;;;6.53;2.55;;;8.20;11.00;;;;;;7367908;19;20459;-67
2023/04/12 01:38:52;;;;;;;7.18;2.85;;;8.20;14.00;;;;;;7366814;19;20507;-68
2023/04/12 01:41:22;;;;;;;9.25;2.70;;;8.20;16.70;;;;;;7366422;19;20026;-69
2023/04/12 01:43:54;;;;;;;5.75;2.75;;;8.20;18.20;;;;;;7368437;19;20022;-69
2023/04/12 01:46:25;;;;;;;5.95;2.78;;;8.20;18.30;;;;;;7367995;19;20027;-68
2023/04/12 01:48:56;;;;;;;7.55;2.80;;;8.10;19.70;;;;;;7391038;19;20473;-69
2023/04/12 01:51:41;;;;;;;6.18;2.65;;;8.20;20.20;;;;;;7367617;19;20518;-68
2023/04/12 01:54:12;;;;;;;;;;;8.10;20.40;;;;;;7365946;19;20006;-68
2023/04/12 01:56:47;;;;;;;9.05;3.25;;;8.10;21.40;;;;;;7368083;19;19911;-69
2023/04/12 01:59:23;;;;;;;5.55;2.80;;;8.10;22.60;;;;;;7367494;19;20081;-69
2023/04/12 02:01:53;;;;;;;5.72;2.83;;;8.20;22.40;;;;;;7366303;19;20014;-68
2023/04/12 02:04:26;;;;;;;7.60;2.78;;;8.10;23.40;;;;;;7366047;19;20014;-68
2023/04/12 02:06:56;;;;;;;7.50;2.90;;;8.10;24.30;;;;;;7390498;19;20032;-69
2023/04/12 02:09:26;;;;;;;4.53;2.53;;;8.00;23.70;;;;;;7366056;19;20081;-69
2023/04/12 02:11:56;;;;;;;10.25;3.03;;;8.10;24.60;;;;;;7366584;19;20078;-69
2023/04/12 02:14:30;;;;;;;7.75;3.47;;;8.10;25.00;;;;;;7364142;19;20006;-69
2023/04/12 02:17:01;;;;;;;7.78;2.90;;;8.00;26.00;;;;;;7366394;19;20010;-68
2023/04/12 02:19:31;;;;;;;7.25;2.90;;;8.00;25.80;;;;;;7366411;19;20052;-68
2023/04/12 02:22:01;;;;;;;7.80;3.05;;;7.90;25.70;;;;;;7388486;19;20052;-68
2023/04/12 02:24:31;;;;;;;6.55;2.85;;;8.00;27.80;;;;;;7364224;19;20011;-69
2023/04/12 02:27:01;;;;;;;7.38;2.60;;;8.00;27.70;;;;;;7366600;19;20018;-68
2023/04/12 02:29:33;;;;;;;5.78;3.35;;;7.90;28.20;;;;;;7366097;19;20013;-68
2023/04/12 02:32:03;;;;;;;7.25;3.35;;;8.00;28.80;;;;;;7366559;19;20018;-68
2023/04/12 02:34:37;;;;;;;10.80;3.42;;;7.90;28.80;;;;;;7364631;19;20014;-69
2023/04/12 02:37:07;;;;;;;7.47;2.70;;;7.90;30.40;;;;;;7389775;19;20461;-68
2023/04/12 02:39:39;;;;;;;6.45;3.00;;;7.80;30.30;;;;;;7364954;19;20029;-68
2023/04/12 02:42:09;;;;;;;7.28;3.25;;;7.80;31.80;;;;;;7364218;19;20019;-69
2023/04/12 02:44:46;;;;;;;8.93;3.50;;;7.80;32.40;;;;;;7367252;19;20013;-69
2023/04/12 02:47:16;;;;;;;9.88;3.30;;;7.90;33.90;;;;;;7373676;19;20036;-69
2023/04/12 02:49:46;;;;;;;8.73;3.20;;;7.80;33.60;;;;;;7372884;19;20101;-68
2023/04/12 02:52:16;;;;;;;4.32;2.70;;;7.80;34.80;;;;;;7374331;19;20356;-69
2023/04/12 02:54:46;;;;;;;7.63;3.10;;;7.80;35.80;;;;;;7392850;19;20101;-68
2023/04/12 02:57:16;;;;;;;9.93;3.40;;;7.80;36.10;;;;;;7374214;19;20011;-68
2023/04/12 02:59:51;;;;;;;5.75;3.22;;;7.80;36.20;;;;;;7371779;19;20039;-69
2023/04/12 03:02:22;;;;;;;9.30;3.70;;;7.80;36.20;;;;;;7371807;19;20015;-69
2023/04/12 03:04:53;;;;;;;6.43;3.10;;;7.80;36.40;;;;;;7372127;19;20010;-68
2023/04/12 03:07:24;;;;;;;9.45;4.22;;;7.70;36.50;;;;;;7372646;19;20025;-68
2023/04/12 03:09:54;;;;;;;9.45;3.90;;;7.70;37.70;;;;;;7394063;19;20395;-69
2023/04/12 03:12:24;;;;;;;7.30;3.92;;;7.70;38.00;;;;;;7373733;19;20034;-68
2023/04/12 03:14:56;;;;;;;9.68;3.65;;;7.70;38.50;;;;;;7368794;19;20018;-68
2023/04/12 03:17:26;;;;;;;8.73;4.60;;;7.70;38.60;;;;;;7372612;19;20383;-68
2023/04/12 03:19:57;;;;;;;8.25;4.20;;;7.80;38.80;;;;;;7372467;19;20482;-68
2023/04/12 03:22:26;;;;;;;7.63;4.35;;;7.70;37.20;;;;;;7371442;19;20014;-69
2023/04/12 03:24:56;;;;;;;11.57;4.45;;;7.70;38.50;;;;;;7392534;19;20026;-68
2023/04/12 03:27:26;;;;;;;10.18;4.47;;;7.70;39.10;;;;;;7373202;19;20024;-69
2023/04/12 03:29:59;;;;;;;8.82;4.10;;;7.60;38.80;;;;;;7369606;19;20071;-68
2023/04/12 03:32:29;;;;;;;8.57;3.92;;;7.60;39.00;;;;;;7371858;19;20015;-67
2023/04/12 03:34:59;;;;;;;6.82;3.97;;;7.70;40.20;;;;;;7369857;19;20086;-68
2023/04/12 03:37:29;;;;;;;7.55;3.90;;;7.70;40.20;;;;;;7372964;19;20051;-68
2023/04/12 03:39:59;;;;;;;5.72;3.50;;;7.60;40.20;;;;;;7393208;19;20030;-68
2023/04/12 03:42:30;;;;;;;9.52;3.85;;;7.70;41.00;;;;;;7370830;19;20047;-69
2023/04/12 03:45:06;;;;;;;9.02;3.80;;;7.60;39.70;;;;;;7369399;19;20021;-69
2023/04/12 03:47:36;;;;;;;8.98;3.90;;;7.60;40.40;;;;;;7371964;19;20018;-69
2023/04/12 03:50:09;;;;;;;8.43;4.10;;;7.60;41.10;;;;;;7371515;19;20510;-68
2023/04/12 03:52:41;;;;;;;10.00;3.92;;;7.60;41.40;;;;;;7372394;19;20015;-68
2023/04/12 03:55:12;;;;;;;8.40;3.75;;;7.60;42.10;;;;;;7371463;19;20014;-70
2023/04/12 03:57:42;;;;;;;8.60;4.22;;;7.60;41.70;;;;;;7393915;19;20053;-68
2023/04/12 04:00:16;;;;;;;8.93;3.95;;;7.50;41.60;;;;;;7369208;19;20009;-68
2023/04/12 04:02:49;;;;;;;6.45;4.30;;;7.50;41.30;;;;;;7370422;19;20467;-68
2023/04/12 04:05:19;;;;;;;8.70;4.47;;;7.50;41.70;;;;;;7370655;19;20462;-69
2023/04/12 04:07:50;;;;;;;7.07;4.10;;;7.60;43.00;;;;;;7388465;19;20018;-69
2023/04/12 04:10:20;;;;;;;6.78;3.92;;;7.50;43.00;;;;;;7395941;19;20006;-68
2023/04/12 04:12:49;;;;;;;9.50;4.40;;;7.50;43.80;;;;;;7410549;19;20470;-63
2023/04/12 04:15:22;;;;;;;7.72;4.10;;;7.60;44.40;;;;;;7372458;19;20011;-68
2023/04/12 04:17:52;;;;;;;6.78;4.22;;;7.60;44.40;;;;;;7371124;19;20002;-68
2023/04/12 04:20:22;;;;;;;7.15;3.58;;;7.60;44.50;;;;;;7369802;19;20009;-67
2023/04/12 04:22:53;;;;;;;9.70;4.15;;;7.60;44.40;;;;;;7370073;19;20011;-67
2023/04/12 04:25:28;;;;;;;10.38;4.50;;;7.60;44.80;;;;;;7367497;19;20012;-67
2023/04/12 04:27:58;;;;;;;7.90;4.30;;;7.50;44.40;;;;;;7393092;19;20039;-68
2023/04/12 04:30:32;;;;;;;10.20;4.22;;;7.50;44.30;;;;;;7367740;19;20039;-67
2023/04/12 04:33:03;;;;;;;7.88;4.03;;;7.60;44.90;;;;;;7371094;19;20041;-67
2023/04/12 04:35:33;;;;;;;11.45;4.28;;;7.60;44.50;;;;;;7368063;19;20102;-68
2023/04/12 04:38:03;;;;;;;7.95;4.20;;;7.60;45.50;;;;;;7370614;19;20021;-67
2023/04/12 04:40:34;;;;;;;7.55;4.05;;;7.60;44.50;;;;;;7368575;19;20017;-67
2023/04/12 04:43:04;;;;;;;6.22;4.03;;;7.50;45.40;;;;;;7392522;19;20015;-68
2023/04/12 04:45:40;;;;;;;6.45;3.85;;;7.50;45.50;;;;;;7368959;19;20011;-68
2023/04/12 04:48:10;;;;;;;5.28;3.78;;;7.60;46.60;;;;;;7370112;19;20006;-68
2023/04/12 04:50:40;;;;;;;8.32;3.92;;;7.60;46.40;;;;;;7369185;19;20035;-68
2023/04/12 04:53:10;;;;;;;7.97;3.85;;;7.60;46.40;;;;;;7368978;19;20805;-69
2023/04/12 04:55:40;;;;;;;9.70;3.97;;;7.60;46.90;;;;;;7367186;19;20494;-69
2023/04/12 04:58:10;;;;;;;6.15;3.90;;;7.60;47.30;;;;;;7375882;19;20446;-68
2023/04/12 05:00:43;;;;;;;7.90;3.78;;;7.60;47.10;;;;;;7389430;19;20015;-68
2023/04/12 05:03:13;;;;;;;6.32;3.33;;;7.50;46.80;;;;;;7368122;19;20007;-68
2023/04/12 05:05:43;;;;;;;5.80;3.35;;;7.60;47.30;;;;;;7368252;19;20013;-69
2023/04/12 05:08:13;;;;;;;5.65;3.65;;;7.70;47.90;;;;;;7368664;19;20006;-67
2023/04/12 05:10:45;;;;;;;7.82;3.60;;;7.60;47.60;;;;;;7367422;19;20015;-68
2023/04/12 05:13:15;;;;;;;8.57;3.90;;;7.60;48.10;;;;;;7369294;19;20018;-67
2023/04/12 05:15:47;;;;;;;7.93;4.03;;;7.60;48.40;;;;;;7390152;19;20022;-68
2023/04/12 05:18:17;;;;;;;11.18;3.78;;;7.50;48.30;;;;;;7368115;19;20010;-68
2023/04/12 05:20:47;;;;;;;6.22;4.15;;;7.60;48.80;;;;;;7366888;19;20020;-68
2023/04/12 05:23:17;;;;;;;7.53;4.03;;;7.60;49.10;;;;;;7367513;19;20011;-68
2023/04/12 05:25:48;;;;;;;10.18;4.38;;;7.60;49.10;;;;;;7368082;19;20026;-68
2023/04/12 05:28:19;;;;;;;8.10;3.35;;;7.50;48.40;;;;;;7367550;19;20081;-67
2023/04/12 05:30:51;;;;;;;6.07;3.55;;;7.60;49.60;;;;;;7389150;19;20454;-67
2023/04/12 05:33:21;;;;;;;7.07;3.40;;;7.60;49.80;;;;;;7367293;19;20581;-67
2023/04/12 05:35:51;;;;;;;7.88;3.70;;;7.60;50.00;;;;;;7360448;19;20022;-67
2023/04/12 05:38:21;;;;;;;5.65;3.60;;;7.60;50.00;;;;;;7366073;19;20163;-67
2023/04/12 05:40:51;;;;;;;6.13;3.28;;;7.70;49.90;;;;;;7359711;19;20014;-68
2023/04/12 05:43:21;;;;;;;7.32;3.53;;;7.60;49.40;;;;;;7366309;19;20090;-68
2023/04/12 05:45:55;;;;;;;9.45;3.75;;;7.60;49.30;;;;;;7383106;19;20014;-68
2023/04/12 05:48:25;;;;;;;8.70;3.60;;;7.60;50.30;;;;;;7354003;19;20023;-68
2023/04/12 05:50:56;;;;;;;8.85;4.00;;;7.60;48.70;;;;;;7359289;19;20476;-68
2023/04/12 05:53:28;;;;;;;7.22;3.85;;;7.70;50.10;;;;;;7365794;19;20006;-65
2023/04/12 05:55:58;;;;;;;6.13;3.78;;;7.70;49.80;;;;;;7352905;19;20027;-67
2023/04/12 05:58:28;;;;;;;8.55;3.85;;;7.70;50.00;;;;;;7366093;19;25019;-68
2023/04/12 06:01:00;;;;;;;6.07;3.72;;;7.70;49.80;;;;;;7387792;19;20018;-68
2023/04/12 06:03:32;;;;;;;7.40;4.13;;;7.60;50.30;;;;;;7364851;19;20019;-68
2023/04/12 06:06:02;;;;;;;9.57;4.25;;;7.70;50.70;;;;;;7367398;19;20534;-68
2023/04/12 06:08:33;;;;;;;6.10;3.60;;;7.60;49.80;;;;;;7365950;19;20010;-67
2023/04/12 06:11:06;;;;;;;8.88;3.70;;;7.70;50.70;;;;;;7358549;19;20015;-67
2023/04/12 06:13:36;;;;;;;6.65;4.18;;;7.80;50.80;;;;;;7365180;19;20475;-67
2023/04/12 06:16:09;;;;;;;7.50;4.07;;;7.70;50.40;;;;;;7389265;19;20026;-69
2023/04/12 06:18:40;;;;;;;6.28;3.55;;;7.80;50.80;;;;;;7367917;19;20007;-67
2023/04/12 06:21:10;;;;;;;7.38;3.88;;;7.80;50.60;;;;;;7373172;19;20097;-67
2023/04/12 06:23:39;;;;;;;7.93;4.15;;;7.80;50.30;;;;;;7377946;19;20017;-68
2023/04/12 06:26:10;;;;;;;6.32;3.55;;;7.80;50.50;;;;;;7379696;19;20486;-68
2023/04/12 06:28:40;;;;;;;7.22;4.00;;;7.80;50.10;;;;;;7371737;19;20014;-67
2023/04/12 06:31:12;;;;;;;8.00;4.10;;;7.90;50.50;;;;;;7382648;19;20010;-69
2023/04/12 06:33:42;;;;;;;6.90;3.90;;;7.90;50.20;;;;;;7390812;19;20555;-65
2023/04/12 06:36:14;;;;;;;10.70;4.30;;;7.90;50.50;;;;;;7376991;19;20002;-67
2023/04/12 06:38:45;;;;;;;8.55;3.63;;;7.90;49.80;;;;;;7367702;19;20106;-67
2023/04/12 06:41:15;;;;;;;7.72;4.05;;;8.00;50.10;;;;;;7369168;19;20014;-68
2023/04/12 06:43:45;;;;;;;13.15;4.15;;;8.00;49.00;;;;;;7367755;19;20043;-67
2023/04/12 06:46:17;;;;;;;10.80;3.90;;;8.00;49.50;;;;;;7363628;19;20499;-66
2023/04/12 06:48:47;;;;;;;6.82;4.10;;;8.10;50.10;;;;;;7397943;19;20006;-67
2023/04/12 06:51:17;;;;;;;7.35;3.80;;;8.10;49.70;;;;;;7359865;19;20010;-66
2023/04/12 06:53:47;;;;;;;6.05;4.00;;;8.20;50.40;;;;;;7369617;19;20018;-68
2023/04/12 06:56:17;;;;;;;6.95;4.00;;;8.10;49.10;;;;;;7371112;19;20007;-68
2023/04/12 06:58:47;;;;;;;7.47;3.83;;;8.20;49.20;;;;;;7370846;19;20017;-67
2023/04/12 07:01:20;;;;;;;7.47;4.22;;;8.20;50.00;;;;;;7371260;19;20035;-67
2023/04/12 07:03:50;;;;;;;9.25;4.05;;;8.30;49.70;;;;;;7397233;19;20030;-68
2023/04/12 07:06:20;;;;;;;7.40;4.18;;;8.20;49.30;;;;;;7370660;19;20014;-67
2023/04/12 07:08:57;;;;;;;7.97;4.28;;;8.30;49.90;;;;;;7365393;19;20014;-67
2023/04/12 07:11:27;;;;;;;5.80;3.28;;;8.30;49.20;;;;;;7363676;19;20003;-66
2023/04/12 07:13:57;;;;;;;8.15;3.63;;;8.40;49.10;;;;;;7376686;19;20029;-66
2023/04/12 07:16:32;;;;;;;3.53;2.80;;;8.50;49.20;;;;;;7379050;19;20018;-67
2023/04/12 07:19:03;;;;;;;4.65;2.60;;;8.60;48.00;;;;;;7395031;19;20035;-66
2023/04/12 07:21:33;;;;;;;8.82;2.72;;;8.60;46.90;;;;;;7378925;19;20014;-69
2023/04/12 07:24:03;;;;;;;4.85;2.38;;;8.70;43.80;;;;;;7377046;19;20014;-67
2023/04/12 07:26:33;;;;;;;5.28;2.65;;;8.70;42.00;;;;;;7379332;19;20466;-67
2023/04/12 07:29:06;;;;;;;2.70;2.10;;;8.80;43.20;;;;;;7373891;19;20022;-66
2023/04/12 07:31:39;;;;;;;5.45;2.65;;;8.80;42.00;;;;;;7363063;19;20047;-66
2023/04/12 07:34:09;;;;;;;2.53;2.15;;;8.90;41.60;;;;;;7383362;19;20606;-67
2023/04/12 07:36:39;;;;;;;3.75;2.20;;;8.90;40.80;;;;;;7393953;19;20545;-66
2023/04/12 07:39:10;;;;;;;6.45;2.60;;;8.90;39.70;;;;;;7356373;19;20051;-67
2023/04/12 07:41:41;;;;;;;3.10;2.30;;;9.10;39.90;;;;;;7367408;19;20007;-66
2023/04/12 07:44:11;;;;;;;4.40;2.30;;;9.00;37.20;;;;;;7353018;19;20006;-66
2023/04/12 07:46:45;;;;;;;6.00;2.88;;;9.10;38.40;;;;;;7378552;19;20014;-65
2023/04/12 07:49:15;;;;;;;5.45;2.35;;;9.30;37.40;;;;;;7360153;19;20042;-68
2023/04/12 07:51:45;;;;;;;5.93;2.50;;;9.30;32.80;;;;;;7389151;19;20003;-67
2023/04/12 07:54:15;;;;;;;7.38;3.00;;;9.40;34.40;;;;;;7365222;19;20506;-66
2023/04/12 07:56:59;;;;;;;3.88;2.78;;;9.40;33.20;;;;;;7365580;19;20018;-67
2023/04/12 07:59:29;;;;;;;5.90;2.58;;;9.30;33.10;;;;;;7351910;19;20680;-67
2023/04/12 08:02:02;;;;;;;4.45;2.47;;;9.40;33.30;;;;;;7365212;19;20011;-67
2023/04/12 08:04:32;;;;;;;6.35;2.65;;;9.40;33.10;;;;;;7363555;19;20024;-66
2023/04/12 08:07:02;;;;;;;4.13;2.83;;;9.40;32.90;;;;;;7380667;19;20114;-67
2023/04/12 08:09:32;;;;;;;8.73;2.88;;;9.50;33.30;;;;;;7351950;19;20367;-67
2023/04/12 08:12:02;;;;;;;4.68;3.28;;;9.50;33.70;;;;;;7363357;19;20044;-67
2023/04/12 08:14:32;;;;;;;4.72;2.53;;;9.60;33.50;;;;;;7352250;19;20038;-68
2023/04/12 08:17:04;;;;;;;6.13;2.70;;;9.70;34.10;;;;;;7357519;19;20444;-67
2023/04/12 08:19:34;;;;;;;5.25;2.88;;;9.70;33.60;;;;;;7356421;19;20014;-66
2023/04/12 08:22:04;;;;;;;5.28;2.60;;;9.70;35.40;;;;;;7387494;19;20096;-67
2023/04/12 08:24:34;;;;;;;3.60;2.47;;;9.70;35.30;;;;;;7362309;19;20007;-67
2023/04/12 08:27:04;;;;;;;4.20;2.70;;;9.60;35.10;;;;;;7363964;19;20109;-67
2023/04/12 08:29:34;;;;;;;7.22;3.55;;;9.60;36.80;;;;;;7362818;19;20424;-67
2023/04/12 08:32:08;;;;;;;5.88;3.20;;;9.60;36.10;;;;;;7365324;19;20014;-67
2023/04/12 08:34:39;;;;;;;7.30;3.33;;;9.50;36.60;;;;;;7367834;19;20010;-67
2023/04/12 08:37:09;;;;;;;9.02;3.50;;;9.50;37.90;;;;;;7374664;19;20027;-68
2023/04/12 08:39:39;;;;;;;11.32;3.50;;;9.60;38.60;;;;;;7365894;19;20018;-67
2023/04/12 08:42:09;;;;;;;6.07;3.22;;;9.60;38.70;;;;;;7368296;19;20006;-66
2023/04/12 08:44:41;;;;;;;4.75;2.70;;;9.70;39.90;;;;;;7358826;19;20038;-66
2023/04/12 08:47:13;;;;;;;8.20;3.40;;;9.70;38.40;;;;;;7360931;19;20763;-66
2023/04/12 08:49:43;;;;;;;9.57;3.70;;;9.80;37.80;;;;;;7359755;19;20015;-66
2023/04/12 08:52:14;;;;;;;5.95;3.67;;;9.80;36.60;;;;;;7369175;19;20006;-66
2023/04/12 08:54:44;;;;;;;7.00;3.75;;;9.90;36.50;;;;;;7375412;19;20488;-68
2023/04/12 08:57:15;;;;;;;4.80;3.30;;;9.90;37.70;;;;;;7369614;19;20006;-65
2023/04/12 08:59:46;;;;;;;9.55;3.85;;;10.00;36.00;;;;;;7368176;19;20006;-67
2023/04/12 09:02:19;;;;;;;8.07;4.50;;;10.20;37.20;;;;;;7368885;19;20007;-66
2023/04/12 09:04:51;;;;;;;6.30;3.53;;;10.20;34.90;;;;;;7361695;19;20071;-65
2023/04/12 09:07:22;;;;;;;7.68;3.90;;;10.40;35.30;;;;;;7354269;19;20006;-67
2023/04/12 09:09:52;;;;;;;10.13;3.70;;;10.50;35.70;;;;;;7375470;19;20014;-66
2023/04/12 09:12:23;;;;;;;7.32;3.63;;;10.40;32.80;;;;;;7353826;19;20409;-66
2023/04/12 09:15:11;;;;;;;6.47;3.28;;;10.40;33.10;;;;;;7355091;19;20411;-67
2023/04/12 09:17:45;;;;;;;7.85;3.70;;;10.60;34.80;;;;;;7368602;19;20032;-67
2023/04/12 09:20:25;;;;;;;6.57;3.05;;;10.40;33.10;;;;;;7368891;19;20006;-67
2023/04/12 09:22:56;;;;;;;5.22;3.45;;;10.50;33.70;;;;;;7366311;19;20010;-66
2023/04/12 09:25:39;;;;;;;7.93;3.10;;;10.50;33.20;;;;;;7366795;19;20014;-67
2023/04/12 09:28:23;;;;;;;4.95;3.08;;;10.60;33.20;;;;;;7386032;19;20487;-69
2023/04/12 09:30:55;;;;;;;5.78;3.05;;;10.70;33.20;;;;;;7386847;19;20418;-67
2023/04/12 09:33:36;;;;;;;5.43;2.97;;;10.70;33.30;;;;;;7362218;19;20021;-67
2023/04/12 09:36:12;;;;;;;6.43;2.58;;;10.80;31.90;;;;;;7364263;19;20018;-66
2023/04/12 09:38:43;;;;;;;4.55;3.05;;;10.80;27.90;;;;;;7366461;19;20002;-67
2023/04/12 09:41:21;;;;;;;5.07;2.45;;;11.00;30.00;;;;;;7358177;19;20010;-67
2023/04/12 09:43:56;;;;;;;5.70;2.40;;;11.10;28.40;;;;;;7359525;19;20021;-66
2023/04/12 09:46:26;;;;;;;4.35;2.65;;;11.20;27.10;;;;;;7365721;19;20482;-66
2023/04/12 09:49:02;;;;;;;3.17;2.28;;;11.20;26.30;;;;;;7389738;19;20023;-67
2023/04/12 09:51:35;;;;;;;3.88;2.20;;;11.30;27.00;;;;;;7367266;19;20011;-68
2023/04/12 09:54:07;;;;;;;5.72;2.00;;;11.30;24.00;;;;;;7363279;19;20022;-66
2023/04/12 09:56:38;;;;;;;6.35;2.70;;;11.50;21.10;;;;;;7359621;19;20340;-66
2023/04/12 09:59:09;;;;;;;6.55;2.60;;;11.60;22.70;;;;;;7366636;19;20485;-66
2023/04/12 10:01:41;;;;;;;7.70;2.65;;;11.50;17.30;;;;;;7353781;19;20010;-66
2023/04/12 10:04:14;;;;;;;7.32;2.88;;;11.70;17.60;;;;;;7359445;19;20348;-66
2023/04/12 10:06:44;;;;;;;4.72;2.40;;;11.70;16.20;;;;;;7386554;19;20477;-67
2023/04/12 10:09:15;;;;;;;4.93;1.95;;;11.90;16.30;;;;;;7366651;19;20039;-66
2023/04/12 10:11:46;;;;;;;3.90;2.30;;;11.80;14.00;;;;;;7367778;19;20102;-66
2023/04/12 10:14:18;;;;;;;5.18;1.92;;;11.90;13.40;;;;;;7359499;19;20033;-65
2023/04/12 10:16:53;;;;;;;4.97;1.95;;;11.90;13.00;;;;;;7360132;19;20087;-67
2023/04/12 10:19:27;;;;;;;3.38;1.77;;;11.80;12.20;;;;;;7365905;19;20024;-67
2023/04/12 10:21:58;;;;;;;2.28;1.73;;;11.90;14.40;;;;;;7390673;19;20073;-66
2023/04/12 10:24:30;;;;;;;3.85;2.05;;;12.00;10.30;;;;;;7358689;19;20038;-66
2023/04/12 10:27:03;;;;;;;4.43;2.17;;;12.20;12.90;;;;;;7350777;19;20014;-66
2023/04/12 10:29:36;;;;;;;3.22;1.65;;;12.40;11.20;;;;;;7365268;19;20010;-67
2023/04/12 10:32:29;;;;;;;5.10;2.00;;;12.60;9.50;;;;;;7361264;19;20090;-66
2023/04/12 10:35:05;;;;;;;3.42;2.00;;;12.90;6.40;;;;;;7351062;19;20023;-68
2023/04/12 10:37:59;;;;;;;3.90;1.80;;;13.00;6.20;;;;;;7352329;19;20092;-69
2023/04/12 10:40:30;;;;;;;4.70;1.80;;;13.10;4.90;;;;;;7353398;19;20541;-67
2023/04/12 10:43:28;;;;;;;3.13;1.45;;;13.00;3.60;;;;;;7368945;19;20018;-67
2023/04/12 10:46:03;;;;;;;3.20;1.50;;;12.90;2.80;;;;;;7367329;19;20038;-66
2023/04/12 10:48:33;;;;;;;;;;;13.00;2.40;;;;;;7349925;19;20359;-65
2023/04/12 10:51:25;;;;;;;1.58;1.17;;;13.00;1.00;;;;;;7364023;19;19919;-68
2023/04/12 10:53:56;;;;;;;5.72;1.77;;;13.20;1.00;;;;;;7356841;19;20410;-66
2023/04/12 10:56:42;;;;;;;3.40;1.33;;;13.30;1.00;;;;;;7366412;19;20010;-66
2023/04/12 10:59:13;;;;;;;6.28;1.42;;;13.20;1.00;;;;;;7364095;19;20014;-67
2023/04/12 11:02:03;;;;;;;2.55;1.30;;;13.30;1.00;;;;;;7364998;19;20015;-67
2023/04/12 11:04:34;;;;;;;2.10;1.40;;;13.40;1.00;;;;;;7364087;19;20031;-67
2023/04/12 11:07:10;;;;;;;4.03;1.50;;;13.50;1.00;;;;;;7393063;19;20010;-67
2023/04/12 11:09:43;;;;;;;2.85;1.58;;;13.50;1.00;;;;;;7369983;19;20649;-68
2023/04/12 11:12:15;;;;;;;3.85;1.42;;;13.80;1.00;;;;;;7373860;19;20038;-67
2023/04/12 11:14:46;;;;;;;3.30;1.48;;;13.80;1.00;;;;;;7370403;19;20018;-67
2023/04/12 11:17:24;;;;;;;3.17;1.52;;;14.00;1.00;;;;;;7372542;19;20010;-68
2023/04/12 11:20:00;;;;;;;5.40;1.60;;;14.30;1.00;;;;;;7371207;19;20003;-66
2023/04/12 11:22:34;;;;;;;3.63;1.50;;;14.40;1.00;;;;;;7360606;19;20017;-66
2023/04/12 11:25:04;;;;;;;4.18;1.35;;;14.20;1.00;;;;;;7390841;19;20003;-67
2023/04/12 11:27:36;;;;;;;4.38;2.00;;;14.30;1.00;;;;;;7373252;19;20018;-66
2023/04/12 11:30:08;;;;;;;2.42;1.13;;;14.30;1.00;;;;;;7371472;19;20055;-65
2023/04/12 11:32:40;;;;;;;2.45;1.00;;;14.10;1.00;;;;;;7371395;19;20387;-66
2023/04/12 11:35:11;;;;;;;2.65;1.15;;;14.00;1.00;;;;;;7373572;19;20042;-67
2023/04/12 11:37:45;;;;;;;2.88;1.27;;;13.90;1.00;;;;;;7372309;19;20481;-66
2023/04/12 11:40:15;;;;;;;2.15;1.00;;;14.10;1.00;;;;;;7370168;19;20010;-67
2023/04/12 11:42:46;;;;;;;1.88;1.00;;;14.10;1.00;;;;;;7388631;19;20017;-66
2023/04/12 11:45:21;;;;;;;1.70;0.70;;;14.30;1.00;;;;;;7371710;19;20387;-67
2023/04/12 11:47:53;;;;;;;4.00;1.27;;;14.60;1.00;;;;;;7363959;19;20011;-66
2023/04/12 11:50:31;;;;;;;1.67;0.90;;;14.80;1.00;;;;;;7366676;19;20010;-67
2023/04/12 11:53:19;;;;;;;1.92;0.93;;;15.00;1.00;;;;;;7358340;19;20023;-67
2023/04/12 11:55:50;;;;;;;2.17;1.00;;;14.90;1.00;;;;;;7370693;19;20006;-67
2023/04/12 11:58:24;;;;;;;0.73;0.60;;;15.20;1.00;;;;;;7370306;19;20012;-68
2023/04/12 12:00:55;;;;;;;2.05;0.80;;;15.00;1.00;;;;;;7389428;19;20011;-67
2023/04/12 12:03:25;;;;;;;4.03;2.45;;;14.80;1.00;;;;;;7368446;19;20534;-67
2023/04/12 12:05:56;;;;;;;1.30;0.82;;;14.80;1.00;;;;;;7372626;19;20066;-68
2023/04/12 12:08:29;;;;;;;1.83;1.10;;;14.70;1.00;;;;;;7363903;19;20345;-66
2023/04/12 12:10:59;;;;;;;2.88;0.70;;;14.70;1.00;;;;;;7368237;19;20046;-68
2023/04/12 12:13:47;;;;;;;2.45;0.80;;;14.80;1.00;;;;;;7355749;19;20019;-66
2023/04/12 12:16:18;;;;;;;1.15;0.70;;;14.80;1.00;;;;;;7371659;19;20014;-68
2023/04/12 12:18:50;;;;;;;2.67;0.82;;;14.90;1.00;;;;;;7384698;19;20011;-67
2023/04/12 12:21:40;;;;;;;2.45;0.90;;;14.90;1.00;;;;;;7371449;19;20015;-67
2023/04/12 12:24:14;;;;;;;2.63;0.80;;;14.90;1.00;;;;;;7368581;19;20006;-66
2023/04/12 12:26:44;;;;;;;3.40;0.87;;;14.80;1.00;;;;;;7368863;19;20491;-66
2023/04/12 12:29:20;;;;;;;2.25;0.90;;;15.00;1.00;;;;;;7354645;19;20263;-66
2023/04/12 12:31:50;;;;;;;1.70;0.77;;;15.20;1.00;;;;;;7364279;19;20010;-66
2023/04/12 12:34:21;;;;;;;4.18;0.93;;;14.90;1.00;;;;;;7367983;19;20006;-67
2023/04/12 12:36:57;;;;;;;2.35;1.00;;;14.90;1.00;;;;;;7385770;19;20328;-67
2023/04/12 12:39:29;;;;;;;3.58;0.88;;;15.00;1.00;;;;;;7361973;19;20060;-67
2023/04/12 12:41:59;;;;;;;1.02;0.80;;;14.80;1.00;;;;;;7370078;19;20459;-67
2023/04/12 12:44:29;;;;;;;2.70;1.00;;;14.90;1.00;;;;;;7361064;19;20121;-67
2023/04/12 12:47:01;;;;;;;1.83;0.90;;;15.10;1.00;;;;;;7369261;19;20014;-67
2023/04/12 12:49:43;;;;;;;3.08;1.00;;;15.20;1.00;;;;;;7358867;19;20011;-68
2023/04/12 12:52:12;;;;;;;1.85;0.80;;;15.20;1.00;;;;;;7364593;19;20018;-66
2023/04/12 12:54:48;;;;;;;1.23;0.60;;;15.30;1.00;;;;;;7385415;19;20048;-68
2023/04/12 12:57:18;;;;;;;1.83;0.82;;;15.30;1.00;;;;;;7367234;19;20022;-67
2023/04/12 12:59:48;;;;;;;0.68;0.50;;;15.60;1.00;;;;;;7366526;19;20014;-68
2023/04/12 13:02:18;;;;;;;1.92;0.80;;;15.10;1.00;;;;;;7358919;19;20011;-68
2023/04/12 13:04:48;;;;;;;3.60;0.90;;;15.00;1.00;;;;;;7362066;19;20021;-69
2023/04/12 13:07:18;;;;;;;1.88;0.68;;;15.10;1.00;;;;;;7361787;19;20450;-68
2023/04/12 13:09:52;;;;;;;3.08;0.90;;;15.10;1.00;;;;;;7379261;19;20024;-68
2023/04/12 13:12:22;;;;;;;1.60;0.90;;;15.00;1.00;;;;;;7360461;19;20010;-68
2023/04/12 13:14:52;;;;;;;3.20;0.80;;;15.00;1.00;;;;;;7359190;19;20010;-67
2023/04/12 13:17:41;;;;;;;2.42;0.80;;;15.10;1.00;;;;;;7358699;19;20019;-70
2023/04/12 13:20:12;;;;;;;0.98;0.60;;;15.10;1.00;;;;;;7366861;19;20011;-68
2023/04/12 13:22:42;;;;;;;2.38;0.90;;;15.30;1.00;;;;;;7367159;19;20019;-66
2023/04/12 13:25:14;;;;;;;1.50;0.70;;;15.30;1.00;;;;;;7365495;19;20010;-68